KELP/ELP METAR and TAF weather

Enter ICAO airport designator
Station Type Date Time Source
KELP METAR 2019/02/23 02:51 UTC NOAA

KELP 230251Z 26017G30KT 10SM -RA SCT015 BKN030 OVC060 04/00 A2988 RMK AO2 PK WND 27034/0154 SNB26E50 PRESRR SLP100 CLDS TPG MTNS OBSCD SW-NW P0045 60045 T00390000 53064 $


Station Type Date Time Source
KELP Decoded METAR 2019/02/23 02:51 UTC NOAA

EL PASO INTERNATIONAL AIRPORT , TX, United States (KELP) 31-49N 106-23W 1197M
Feb 22, 2019 - 09:51 PM EST / 2019.02.23 0251 UTC
Wind: from the W (260 degrees) at 20 MPH (17 KT) gusting to 35 MPH (30 KT):0
Visibility: 10 mile(s):0
Sky conditions: overcast
Weather: light rain
Precipitation last hour: 0.45 inches
Temperature: 39.0 F (3.9 C)
Dew Point: 32.0 F (0.0 C)
Relative Humidity: 75%
Pressure (altimeter): 29.88 in. Hg (1011 hPa)
Pressure tendency: rising rapidly - 0.19 inches (6.4 hPa) higher than three hours ago
ob: KELP 230251Z 26017G30KT 10SM -RA SCT015 BKN030 OVC060 04/00 A2988 RMK AO2 PK WND 27034/0154 SNB26E50 PRESRR SLP100 CLDS TPG MTNS OBSCD SW-NW P0045 60045 T00390000 53064
cycle: 3

Station Type Date Time Source
KELP TAF 2019/02/22 18:30 UTC NOAA

TAF KELP 221727Z 2218/2318 18014KT P6SM SCT070
FM222000 21022G32KT P6SM BKN070
TEMPO 2223/2303 27030G45KT 3SM SHRA SCT020 BKN040
FM230300 27028G42KT P6SM FEW030
FM231300 27020G30KT P6SM SKC


Example: see airport list